Sunday, November 19, 2017, 2:45 AM GMT
Back to Local

CXMY, Malay Falls , N. S.

Location: , , Canada Lat: 44.983
Local Time: 2:45 AM GMT ( 2:45 GMT) Lon: -62.483
Time Zone: GMT Elev: 131 ft

Show me the last for .
Show Coded

Time T Td Feel RH Dir Speed Gust Alt SLP Vis Weather Sky Remarks
2017-11-19 02:00 31 27 - 85 - - - - - 0 None
2017-11-19 01:00 29 28 - 92 - - - - - 0 None
2017-11-19 00:00 28 27 - 92 - - - - - 0 None
2017-11-18 23:00 28 26 - 90 - - - - - 0 None
2017-11-18 22:00 31 27 - 84 - - - - - 0 None
2017-11-18 21:00 35 27 - 72 - - - - - 0 None
2017-11-18 20:00 38 27 - 64 - - - - - 0 None
2017-11-18 19:00 38 26 - 61 - - - - - 0 None
2017-11-18 18:00 38 26 - 61 - - - - - 0 None
2017-11-18 17:00 38 27 - 63 - - - - - 0 None
2017-11-18 16:00 37 26 - 65 - - - - - 0 None
2017-11-18 15:00 34 24 - 67 - - - - - 0 None
2017-11-18 14:00 32 25 - 74 - - - - - 0 None
2017-11-18 13:00 31 25 - 76 - - - - - 0 None
2017-11-18 12:00 31 25 - 77 - - - - - 0 None
2017-11-18 11:00 31 25 - 76 - - - - - 0 None
2017-11-18 10:00 32 25 - 75 - - - - - 0 None
2017-11-18 09:00 31 25 - 77 - - - - - 0 None
2017-11-18 08:00 33 26 - 74 - - - - - 0 None
2017-11-18 07:00 34 27 - 74 - - - - - 0 None
2017-11-18 06:00 33 29 - 86 - - - - - 0 None
2017-11-18 05:00 34 29 - 80 - - - - - 0 None
2017-11-18 04:00 35 31 - 82 - - - - - 0 None
2017-11-18 03:00 35 32 - 86 - - - - - 0 None

Support USWX by starting your Amazon purchase here.